ASA1022 KAVL-KBWI
Flight info
| Callsign | ASA1022 |
|---|---|
| Flight time | 1h 9m |
| Altitude | 5500 |
| Route | SUG FLASK RAMAY MRB T358 HAMRR |
| Aircraft | DH8D/M-SDE2E3FGRY/H |
Departure
| Time | 2026-05-08 00:32 |
|---|---|
| Airport | Asheville Regional Airport (KAVL) |
Arrival
| Time | 2026-05-08 01:41 |
|---|---|
| Airport | Baltimore/Washington International Thurgood Marshall Airport (KBWI) |
| Time | Latitude | Longitude | Altitude | Speed | Heading |
|---|---|---|---|---|---|
| 2026-05-08 00:12 | 35.43435 | -82.53843 | 2143 ft | 0 kts | 69° |
| 2026-05-08 00:23 | 35.43434 | -82.53847 | 2143 ft | 2 kts | 69° |
| 2026-05-08 00:23 | 35.43429 | -82.53863 | 2143 ft | 2 kts | 77° |
| 2026-05-08 00:23 | 35.43428 | -82.53882 | 2143 ft | 2 kts | 101° |
| 2026-05-08 00:23 | 35.43433 | -82.53899 | 2143 ft | 2 kts | 123° |
| 2026-05-08 00:24 | 35.43443 | -82.53912 | 2144 ft | 2 kts | 145° |
| 2026-05-08 00:24 | 35.43454 | -82.53919 | 2145 ft | 1 kts | 162° |
| 2026-05-08 00:24 | 35.43456 | -82.53919 | 2145 ft | 0 kts | 162° |
| 2026-05-08 00:24 | 35.43455 | -82.53919 | 2145 ft | 0 kts | 162° |
| 2026-05-08 00:26 | 35.43448 | -82.53917 | 2144 ft | 0 kts | 163° |
| 2026-05-08 00:26 | 35.43446 | -82.53915 | 2144 ft | 3 kts | 162° |
| 2026-05-08 00:27 | 35.43435 | -82.53911 | 2143 ft | 1 kts | 160° |
| 2026-05-08 00:27 | 35.43383 | -82.53903 | 2140 ft | 9 kts | 193° |
| 2026-05-08 00:27 | 35.43319 | -82.53921 | 2138 ft | 10 kts | 177° |
| 2026-05-08 00:27 | 35.43225 | -82.53888 | 2133 ft | 20 kts | 160° |
| 2026-05-08 00:28 | 35.43115 | -82.53839 | 2126 ft | 3 kts | 160° |
| 2026-05-08 00:28 | 35.43100 | -82.53832 | 2125 ft | 7 kts | 159° |
| 2026-05-08 00:28 | 35.43029 | -82.53800 | 2120 ft | 14 kts | 160° |
| 2026-05-08 00:29 | 35.42917 | -82.53750 | 2113 ft | 19 kts | 160° |
| 2026-05-08 00:29 | 35.42800 | -82.53699 | 2105 ft | 17 kts | 160° |
| 2026-05-08 00:29 | 35.42691 | -82.53649 | 2097 ft | 10 kts | 161° |
| 2026-05-08 00:29 | 35.42634 | -82.53638 | 2094 ft | 4 kts | 204° |
| 2026-05-08 00:30 | 35.42632 | -82.53641 | 2094 ft | 0 kts | 211° |
| 2026-05-08 00:30 | 35.42631 | -82.53641 | 2094 ft | 0 kts | 211° |
| 2026-05-08 00:31 | 35.42616 | -82.53663 | 2094 ft | 7 kts | 244° |
| 2026-05-08 00:31 | 35.42607 | -82.53738 | 2095 ft | 8 kts | 298° |
| 2026-05-08 00:31 | 35.42678 | -82.53786 | 2099 ft | 38 kts | 340° |
| 2026-05-08 00:31 | 35.43201 | -82.54024 | 2135 ft | 116 kts | 339° |
| 2026-05-08 00:32 | 35.44123 | -82.54432 | 2212 ft | 159 kts | 340° |
| 2026-05-08 00:32 | 35.45234 | -82.54879 | 2727 ft | 163 kts | 344° |
| 2026-05-08 00:32 | 35.46174 | -82.55268 | 3576 ft | 146 kts | 340° |
| 2026-05-08 00:32 | 35.47232 | -82.55701 | 3760 ft | 166 kts | 341° |
| 2026-05-08 00:33 | 35.48317 | -82.56117 | 4367 ft | 166 kts | 341° |
| 2026-05-08 00:33 | 35.49443 | -82.56541 | 4838 ft | 171 kts | 341° |
| 2026-05-08 00:33 | 35.50580 | -82.56957 | 5381 ft | 175 kts | 341° |
| 2026-05-08 00:33 | 35.51736 | -82.57358 | 5964 ft | 175 kts | 341° |
| 2026-05-08 00:34 | 35.52896 | -82.57880 | 6447 ft | 178 kts | 332° |
| 2026-05-08 00:34 | 35.54110 | -82.58134 | 6979 ft | 187 kts | 5° |
| 2026-05-08 00:34 | 35.55272 | -82.57313 | 7432 ft | 206 kts | 43° |
| 2026-05-08 00:34 | 35.55849 | -82.55674 | 7870 ft | 221 kts | 78° |
| 2026-05-08 00:35 | 35.55954 | -82.53794 | 8372 ft | 225 kts | 83° |
| 2026-05-08 00:35 | 35.56062 | -82.51855 | 8888 ft | 228 kts | 83° |
| 2026-05-08 00:35 | 35.56246 | -82.49918 | 9349 ft | 230 kts | 68° |
| 2026-05-08 00:35 | 35.57154 | -82.48411 | 9701 ft | 217 kts | 22° |
| 2026-05-08 00:36 | 35.58566 | -82.48022 | 9916 ft | 212 kts | 348° |
| 2026-05-08 00:36 | 35.60079 | -82.48286 | 9998 ft | 232 kts | 342° |
| 2026-05-08 00:36 | 35.61740 | -82.48715 | 10021 ft | 254 kts | 340° |
| 2026-05-08 00:36 | 35.63530 | -82.49219 | 10018 ft | 273 kts | 341° |
| 2026-05-08 00:37 | 35.65517 | -82.49274 | 10002 ft | 298 kts | 3° |
| 2026-05-08 00:37 | 35.67471 | -82.48272 | 10011 ft | 319 kts | 27° |
| 2026-05-08 00:37 | 35.69328 | -82.46736 | 9988 ft | 322 kts | 22° |
| 2026-05-08 00:38 | 35.73553 | -82.46503 | 10018 ft | 304 kts | 345° |
| 2026-05-08 00:38 | 35.75695 | -82.46454 | 9995 ft | 317 kts | 5° |
| 2026-05-08 00:38 | 35.77756 | -82.45316 | 9996 ft | 331 kts | 29° |
| 2026-05-08 00:38 | 35.79314 | -82.43253 | 10190 ft | 335 kts | 53° |
| 2026-05-08 00:39 | 35.80100 | -82.40574 | 10607 ft | 331 kts | 78° |
| 2026-05-08 00:39 | 35.79978 | -82.37789 | 11027 ft | 324 kts | 104° |
| 2026-05-08 00:39 | 35.79036 | -82.35366 | 11460 ft | 312 kts | 126° |
| 2026-05-08 00:39 | 35.78077 | -82.32996 | 11866 ft | 308 kts | 107° |
| 2026-05-08 00:40 | 35.77948 | -82.30418 | 12278 ft | 301 kts | 78° |
| 2026-05-08 00:40 | 35.78799 | -82.28172 | 12698 ft | 281 kts | 42° |
| 2026-05-08 00:40 | 35.80341 | -82.26987 | 13114 ft | 251 kts | 4° |
| 2026-05-08 00:40 | 35.81982 | -82.26917 | 13558 ft | 230 kts | 344° |
| 2026-05-08 00:41 | 35.83558 | -82.27168 | 13991 ft | 225 kts | 341° |
| 2026-05-08 00:41 | 35.85080 | -82.27458 | 14419 ft | 222 kts | 340° |
| 2026-05-08 00:41 | 35.86602 | -82.27742 | 14844 ft | 219 kts | 340° |
| 2026-05-08 00:41 | 35.87618 | -82.27915 | 15128 ft | 217 kts | 340° |
| 2026-05-08 00:42 | 35.87935 | -82.27966 | 15220 ft | 216 kts | 340° |
| 2026-05-08 00:42 | 35.88319 | -82.28027 | 15328 ft | 216 kts | 340° |
| 2026-05-08 00:42 | 35.89817 | -82.28125 | 15737 ft | 225 kts | 355° |
| 2026-05-08 00:42 | 35.91300 | -82.27294 | 16137 ft | 248 kts | 30° |
| 2026-05-08 00:43 | 35.92312 | -82.25533 | 16539 ft | 257 kts | 60° |
| 2026-05-08 00:43 | 35.93019 | -82.23583 | 16942 ft | 248 kts | 56° |
| 2026-05-08 00:43 | 35.93763 | -82.21678 | 17332 ft | 240 kts | 56° |
| 2026-05-08 00:43 | 35.94470 | -82.19852 | 17733 ft | 240 kts | 57° |
| 2026-05-08 00:44 | 35.95210 | -82.17982 | 18173 ft | 247 kts | 55° |
| 2026-05-08 00:44 | 35.95966 | -82.16048 | 18644 ft | 254 kts | 56° |
| 2026-05-08 00:44 | 35.96739 | -82.14073 | 19096 ft | 262 kts | 57° |
| 2026-05-08 00:44 | 35.97566 | -82.12015 | 19553 ft | 272 kts | 57° |
| 2026-05-08 00:45 | 35.98410 | -82.09912 | 20014 ft | 281 kts | 56° |
| 2026-05-08 00:45 | 35.99296 | -82.07707 | 20470 ft | 292 kts | 56° |
| 2026-05-08 00:45 | 36.00225 | -82.05427 | 20929 ft | 303 kts | 56° |
| 2026-05-08 00:45 | 36.01187 | -82.03064 | 21382 ft | 314 kts | 56° |
| 2026-05-08 00:46 | 36.02190 | -82.00624 | 21786 ft | 325 kts | 56° |
| 2026-05-08 00:46 | 36.03226 | -81.98124 | 22231 ft | 332 kts | 56° |
| 2026-05-08 00:46 | 36.04279 | -81.95564 | 22676 ft | 337 kts | 56° |
| 2026-05-08 00:46 | 36.05353 | -81.92941 | 22906 ft | 353 kts | 56° |
| 2026-05-08 00:47 | 36.06493 | -81.90185 | 22983 ft | 372 kts | 56° |
| 2026-05-08 00:47 | 36.07703 | -81.87317 | 22996 ft | 382 kts | 56° |
| 2026-05-08 00:47 | 36.08960 | -81.84379 | 23009 ft | 386 kts | 54° |
| 2026-05-08 00:47 | 36.10485 | -81.81673 | 23015 ft | 378 kts | 40° |
| 2026-05-08 00:48 | 36.12185 | -81.79203 | 22997 ft | 381 kts | 40° |
| 2026-05-08 00:48 | 36.13890 | -81.76681 | 23007 ft | 385 kts | 41° |
| 2026-05-08 00:48 | 36.15599 | -81.74091 | 23000 ft | 388 kts | 42° |
| 2026-05-08 00:48 | 36.17276 | -81.71500 | 23004 ft | 391 kts | 42° |
| 2026-05-08 00:49 | 36.18964 | -81.68852 | 23004 ft | 394 kts | 43° |
| 2026-05-08 00:49 | 36.20663 | -81.66158 | 23002 ft | 396 kts | 44° |
| 2026-05-08 00:49 | 36.22356 | -81.63452 | 22999 ft | 398 kts | 44° |
| 2026-05-08 00:49 | 36.24040 | -81.60744 | 22999 ft | 399 kts | 44° |
| 2026-05-08 00:50 | 36.25732 | -81.58009 | 23000 ft | 400 kts | 44° |
| 2026-05-08 00:50 | 36.27431 | -81.55255 | 22995 ft | 401 kts | 44° |
| 2026-05-08 00:50 | 36.29107 | -81.52529 | 22999 ft | 402 kts | 44° |
| 2026-05-08 00:50 | 36.30810 | -81.49751 | 22997 ft | 403 kts | 44° |
| 2026-05-08 00:51 | 36.32487 | -81.47015 | 23003 ft | 403 kts | 44° |
| 2026-05-08 00:51 | 36.34193 | -81.44223 | 22997 ft | 404 kts | 45° |
| 2026-05-08 00:51 | 36.35883 | -81.41456 | 23004 ft | 404 kts | 44° |
| 2026-05-08 00:51 | 36.37569 | -81.38690 | 23006 ft | 405 kts | 44° |
| 2026-05-08 00:52 | 36.39273 | -81.35895 | 23015 ft | 406 kts | 45° |
| 2026-05-08 00:52 | 36.40989 | -81.33073 | 23004 ft | 405 kts | 45° |
| 2026-05-08 00:52 | 36.42680 | -81.30291 | 23005 ft | 405 kts | 45° |
| 2026-05-08 00:52 | 36.44372 | -81.27505 | 23007 ft | 406 kts | 45° |
| 2026-05-08 00:53 | 36.46059 | -81.24724 | 23006 ft | 406 kts | 45° |
| 2026-05-08 00:53 | 36.47754 | -81.21929 | 23008 ft | 406 kts | 45° |
| 2026-05-08 00:53 | 36.49467 | -81.19101 | 23006 ft | 406 kts | 44° |
| 2026-05-08 00:53 | 36.51146 | -81.16326 | 22995 ft | 406 kts | 45° |
| 2026-05-08 00:54 | 36.52841 | -81.13522 | 22994 ft | 407 kts | 45° |
| 2026-05-08 00:54 | 36.54543 | -81.10706 | 22997 ft | 407 kts | 44° |
| 2026-05-08 00:54 | 36.56244 | -81.07888 | 22994 ft | 407 kts | 45° |
| 2026-05-08 00:54 | 36.57946 | -81.05067 | 22991 ft | 407 kts | 45° |
| 2026-05-08 00:55 | 36.59626 | -81.02279 | 22995 ft | 407 kts | 44° |
| 2026-05-08 00:55 | 36.61329 | -80.99451 | 22998 ft | 408 kts | 45° |
| 2026-05-08 00:55 | 36.63017 | -80.96645 | 23001 ft | 408 kts | 45° |
| 2026-05-08 00:55 | 36.64717 | -80.93816 | 22996 ft | 407 kts | 44° |
| 2026-05-08 00:56 | 36.66422 | -80.90978 | 22992 ft | 408 kts | 45° |
| 2026-05-08 00:56 | 36.68124 | -80.88144 | 22992 ft | 408 kts | 45° |
| 2026-05-08 00:56 | 36.69807 | -80.85336 | 22999 ft | 407 kts | 45° |
| 2026-05-08 00:56 | 36.71502 | -80.82507 | 22999 ft | 408 kts | 45° |
| 2026-05-08 00:57 | 36.73202 | -80.79667 | 23001 ft | 408 kts | 45° |
| 2026-05-08 00:57 | 36.74890 | -80.76846 | 23009 ft | 407 kts | 44° |
| 2026-05-08 00:57 | 36.76583 | -80.74013 | 23005 ft | 408 kts | 44° |
| 2026-05-08 00:57 | 36.78282 | -80.71167 | 22997 ft | 408 kts | 45° |
| 2026-05-08 00:58 | 36.79965 | -80.68347 | 22994 ft | 409 kts | 45° |
| 2026-05-08 00:58 | 36.81662 | -80.65501 | 22996 ft | 409 kts | 44° |
| 2026-05-08 00:58 | 36.83347 | -80.62673 | 22994 ft | 409 kts | 45° |
| 2026-05-08 00:58 | 36.85039 | -80.59830 | 22991 ft | 410 kts | 44° |
| 2026-05-08 00:59 | 36.86755 | -80.56944 | 22994 ft | 410 kts | 45° |
| 2026-05-08 00:59 | 36.88440 | -80.54107 | 22994 ft | 410 kts | 45° |
| 2026-05-08 00:59 | 36.90136 | -80.51246 | 22988 ft | 411 kts | 44° |
| 2026-05-08 00:59 | 36.91828 | -80.48371 | 22986 ft | 411 kts | 45° |
| 2026-05-08 01:00 | 36.93527 | -80.45479 | 22986 ft | 411 kts | 45° |
| 2026-05-08 01:00 | 36.95215 | -80.42604 | 22985 ft | 411 kts | 45° |
| 2026-05-08 01:00 | 36.96894 | -80.39751 | 22981 ft | 412 kts | 45° |
| 2026-05-08 01:00 | 36.98620 | -80.36848 | 22983 ft | 412 kts | 44° |
| 2026-05-08 01:01 | 37.00323 | -80.33982 | 22975 ft | 412 kts | 45° |
| 2026-05-08 01:01 | 37.02082 | -80.31175 | 22980 ft | 405 kts | 39° |
| 2026-05-08 01:01 | 37.04050 | -80.28667 | 22984 ft | 400 kts | 34° |
| 2026-05-08 01:01 | 37.06042 | -80.26232 | 22989 ft | 399 kts | 34° |
| 2026-05-08 01:02 | 37.08013 | -80.23820 | 22992 ft | 399 kts | 34° |
| 2026-05-08 01:02 | 37.10005 | -80.21378 | 22986 ft | 399 kts | 34° |
| 2026-05-08 01:02 | 37.12001 | -80.18924 | 22967 ft | 399 kts | 34° |
| 2026-05-08 01:02 | 37.13969 | -80.16497 | 22973 ft | 399 kts | 34° |
| 2026-05-08 01:03 | 37.15944 | -80.14059 | 22977 ft | 399 kts | 35° |
| 2026-05-08 01:03 | 37.17925 | -80.11609 | 22979 ft | 399 kts | 34° |
| 2026-05-08 01:03 | 37.19887 | -80.09179 | 22981 ft | 399 kts | 35° |
| 2026-05-08 01:03 | 37.21868 | -80.06724 | 22977 ft | 400 kts | 35° |
| 2026-05-08 01:04 | 37.23840 | -80.04277 | 22989 ft | 400 kts | 34° |
| 2026-05-08 01:04 | 37.25827 | -80.01808 | 22972 ft | 401 kts | 35° |
| 2026-05-08 01:04 | 37.27795 | -79.99361 | 22975 ft | 401 kts | 34° |
| 2026-05-08 01:04 | 37.29767 | -79.96905 | 22973 ft | 401 kts | 35° |
| 2026-05-08 01:05 | 37.31749 | -79.94436 | 22979 ft | 401 kts | 35° |
| 2026-05-08 01:05 | 37.33720 | -79.91977 | 22982 ft | 401 kts | 35° |
| 2026-05-08 01:05 | 37.35715 | -79.89488 | 22971 ft | 401 kts | 34° |
| 2026-05-08 01:05 | 37.37669 | -79.87047 | 22977 ft | 400 kts | 34° |
| 2026-05-08 01:06 | 37.39658 | -79.84561 | 22966 ft | 401 kts | 34° |
| 2026-05-08 01:06 | 37.41644 | -79.82076 | 22958 ft | 401 kts | 34° |
| 2026-05-08 01:06 | 37.43609 | -79.79617 | 22955 ft | 401 kts | 35° |
| 2026-05-08 01:06 | 37.45586 | -79.77139 | 22967 ft | 402 kts | 35° |
| 2026-05-08 01:07 | 37.47576 | -79.74644 | 22960 ft | 402 kts | 35° |
| 2026-05-08 01:07 | 37.49533 | -79.72186 | 22964 ft | 402 kts | 35° |
| 2026-05-08 01:07 | 37.51523 | -79.69688 | 22965 ft | 403 kts | 35° |
| 2026-05-08 01:07 | 37.53504 | -79.67197 | 22964 ft | 403 kts | 35° |
| 2026-05-08 01:08 | 37.55497 | -79.64690 | 22962 ft | 402 kts | 35° |
| 2026-05-08 01:08 | 37.57470 | -79.62206 | 22954 ft | 403 kts | 35° |
| 2026-05-08 01:08 | 37.59434 | -79.59731 | 22948 ft | 403 kts | 35° |
| 2026-05-08 01:08 | 37.61412 | -79.57237 | 22945 ft | 404 kts | 36° |
| 2026-05-08 01:09 | 37.63397 | -79.54732 | 22955 ft | 404 kts | 35° |
| 2026-05-08 01:09 | 37.65382 | -79.52223 | 22955 ft | 404 kts | 35° |
| 2026-05-08 01:09 | 37.67377 | -79.49703 | 22960 ft | 404 kts | 35° |
| 2026-05-08 01:09 | 37.69372 | -79.47179 | 22960 ft | 405 kts | 35° |
| 2026-05-08 01:10 | 37.71333 | -79.44696 | 22940 ft | 406 kts | 36° |
| 2026-05-08 01:10 | 37.73347 | -79.42145 | 22941 ft | 407 kts | 36° |
| 2026-05-08 01:10 | 37.75318 | -79.39645 | 22951 ft | 407 kts | 35° |
| 2026-05-08 01:10 | 37.77316 | -79.37107 | 22944 ft | 407 kts | 35° |
| 2026-05-08 01:11 | 37.79329 | -79.34551 | 22938 ft | 407 kts | 36° |
| 2026-05-08 01:11 | 37.81338 | -79.31995 | 22929 ft | 406 kts | 36° |
| 2026-05-08 01:11 | 37.83317 | -79.29476 | 22936 ft | 407 kts | 36° |
| 2026-05-08 01:11 | 37.85304 | -79.26945 | 22939 ft | 406 kts | 36° |
| 2026-05-08 01:12 | 37.87297 | -79.24406 | 22934 ft | 406 kts | 36° |
| 2026-05-08 01:12 | 37.89292 | -79.21861 | 22936 ft | 406 kts | 36° |
| 2026-05-08 01:12 | 37.91280 | -79.19325 | 22936 ft | 406 kts | 36° |
| 2026-05-08 01:12 | 37.93247 | -79.16811 | 22929 ft | 406 kts | 36° |
| 2026-05-08 01:13 | 37.95245 | -79.14257 | 22928 ft | 407 kts | 36° |
| 2026-05-08 01:13 | 37.97227 | -79.11722 | 22932 ft | 408 kts | 36° |
| 2026-05-08 01:13 | 37.99210 | -79.09183 | 22922 ft | 408 kts | 36° |
| 2026-05-08 01:13 | 38.01216 | -79.06612 | 22925 ft | 408 kts | 36° |
| 2026-05-08 01:14 | 38.03269 | -79.04225 | 22912 ft | 399 kts | 27° |
| 2026-05-08 01:14 | 38.05516 | -79.02203 | 22939 ft | 394 kts | 23° |
| 2026-05-08 01:14 | 38.07779 | -79.00234 | 22939 ft | 394 kts | 22° |
| 2026-05-08 01:14 | 38.10034 | -78.98271 | 22941 ft | 394 kts | 23° |
| 2026-05-08 01:15 | 38.12311 | -78.96284 | 22928 ft | 394 kts | 23° |
| 2026-05-08 01:15 | 38.14564 | -78.94312 | 22921 ft | 395 kts | 23° |
| 2026-05-08 01:15 | 38.16835 | -78.92320 | 22928 ft | 395 kts | 23° |
| 2026-05-08 01:15 | 38.19084 | -78.90344 | 22931 ft | 395 kts | 23° |
| 2026-05-08 01:16 | 38.21324 | -78.88372 | 22936 ft | 395 kts | 23° |
| 2026-05-08 01:16 | 38.23605 | -78.86363 | 22938 ft | 396 kts | 24° |
| 2026-05-08 01:16 | 38.25848 | -78.84386 | 22943 ft | 396 kts | 24° |
| 2026-05-08 01:16 | 38.28119 | -78.82380 | 22946 ft | 396 kts | 24° |
| 2026-05-08 01:17 | 38.30364 | -78.80395 | 22945 ft | 395 kts | 24° |
| 2026-05-08 01:17 | 38.32626 | -78.78394 | 22951 ft | 395 kts | 24° |
| 2026-05-08 01:17 | 38.34896 | -78.76384 | 22945 ft | 396 kts | 24° |
| 2026-05-08 01:17 | 38.37157 | -78.74380 | 22949 ft | 396 kts | 24° |
| 2026-05-08 01:18 | 38.39400 | -78.72390 | 22939 ft | 396 kts | 24° |
| 2026-05-08 01:18 | 38.41658 | -78.70386 | 22944 ft | 396 kts | 24° |
| 2026-05-08 01:18 | 38.43911 | -78.68385 | 22936 ft | 396 kts | 24° |
| 2026-05-08 01:18 | 38.46196 | -78.66353 | 22949 ft | 396 kts | 24° |
| 2026-05-08 01:19 | 38.48439 | -78.64357 | 22944 ft | 396 kts | 24° |
| 2026-05-08 01:19 | 38.50687 | -78.62354 | 22939 ft | 396 kts | 24° |
| 2026-05-08 01:19 | 38.52959 | -78.60329 | 22945 ft | 396 kts | 24° |
| 2026-05-08 01:19 | 38.55204 | -78.58327 | 22941 ft | 396 kts | 24° |
| 2026-05-08 01:20 | 38.57479 | -78.56297 | 22927 ft | 397 kts | 24° |
| 2026-05-08 01:20 | 38.59710 | -78.54303 | 22944 ft | 397 kts | 24° |
| 2026-05-08 01:20 | 38.61986 | -78.52268 | 22955 ft | 396 kts | 24° |
| 2026-05-08 01:20 | 38.64238 | -78.50253 | 22966 ft | 396 kts | 24° |
| 2026-05-08 01:21 | 38.66489 | -78.48238 | 22947 ft | 397 kts | 24° |
| 2026-05-08 01:21 | 38.68768 | -78.46195 | 22947 ft | 397 kts | 24° |
| 2026-05-08 01:21 | 38.71014 | -78.44180 | 22948 ft | 396 kts | 24° |
| 2026-05-08 01:21 | 38.73266 | -78.42160 | 22949 ft | 396 kts | 24° |
| 2026-05-08 01:22 | 38.75528 | -78.40128 | 22951 ft | 397 kts | 24° |
| 2026-05-08 01:22 | 38.77786 | -78.38099 | 22948 ft | 397 kts | 24° |
| 2026-05-08 01:22 | 38.80033 | -78.36076 | 22947 ft | 397 kts | 24° |
| 2026-05-08 01:22 | 38.82307 | -78.34029 | 22940 ft | 396 kts | 25° |
| 2026-05-08 01:23 | 38.84599 | -78.31961 | 22941 ft | 394 kts | 25° |
| 2026-05-08 01:23 | 38.86840 | -78.29938 | 22938 ft | 394 kts | 25° |
| 2026-05-08 01:23 | 38.89049 | -78.27932 | 22941 ft | 393 kts | 25° |
| 2026-05-08 01:23 | 38.91285 | -78.25893 | 22935 ft | 393 kts | 24° |
| 2026-05-08 01:24 | 38.93531 | -78.23837 | 22924 ft | 394 kts | 25° |
| 2026-05-08 01:24 | 38.95750 | -78.21819 | 22727 ft | 391 kts | 25° |
| 2026-05-08 01:24 | 38.97961 | -78.19814 | 22362 ft | 384 kts | 24° |
| 2026-05-08 01:24 | 39.00025 | -78.17676 | 21976 ft | 391 kts | 38° |
| 2026-05-08 01:25 | 39.01429 | -78.14646 | 21592 ft | 402 kts | 68° |
| 2026-05-08 01:25 | 39.01809 | -78.11126 | 21234 ft | 397 kts | 94° |
| 2026-05-08 01:25 | 39.01689 | -78.07639 | 20886 ft | 392 kts | 93° |
| 2026-05-08 01:25 | 39.01737 | -78.04153 | 20532 ft | 389 kts | 88° |
| 2026-05-08 01:26 | 39.01946 | -78.00706 | 20185 ft | 385 kts | 84° |
| 2026-05-08 01:26 | 39.02275 | -77.97324 | 19829 ft | 382 kts | 81° |
| 2026-05-08 01:26 | 39.02695 | -77.93968 | 19472 ft | 379 kts | 79° |
| 2026-05-08 01:26 | 39.03177 | -77.90663 | 19108 ft | 375 kts | 78° |
| 2026-05-08 01:27 | 39.03704 | -77.87399 | 18732 ft | 372 kts | 76° |
| 2026-05-08 01:27 | 39.04267 | -77.84153 | 18385 ft | 370 kts | 76° |
| 2026-05-08 01:27 | 39.04847 | -77.80964 | 18005 ft | 367 kts | 75° |
| 2026-05-08 01:27 | 39.05445 | -77.77790 | 17616 ft | 364 kts | 75° |
| 2026-05-08 01:28 | 39.06053 | -77.74640 | 17258 ft | 362 kts | 75° |
| 2026-05-08 01:28 | 39.06634 | -77.71513 | 16897 ft | 359 kts | 75° |
| 2026-05-08 01:28 | 39.07195 | -77.68433 | 16518 ft | 356 kts | 75° |
| 2026-05-08 01:28 | 39.07759 | -77.65369 | 16159 ft | 353 kts | 75° |
| 2026-05-08 01:29 | 39.08324 | -77.62321 | 15795 ft | 350 kts | 75° |
| 2026-05-08 01:29 | 39.08888 | -77.59297 | 15422 ft | 347 kts | 75° |
| 2026-05-08 01:29 | 39.09451 | -77.56293 | 15068 ft | 344 kts | 75° |
| 2026-05-08 01:29 | 39.10007 | -77.53334 | 14953 ft | 332 kts | 75° |
| 2026-05-08 01:30 | 39.10538 | -77.50514 | 14914 ft | 317 kts | 75° |
| 2026-05-08 01:30 | 39.11053 | -77.47785 | 14918 ft | 304 kts | 75° |
| 2026-05-08 01:30 | 39.11539 | -77.45209 | 14681 ft | 302 kts | 74° |
| 2026-05-08 01:30 | 39.12040 | -77.42552 | 14195 ft | 310 kts | 75° |
| 2026-05-08 01:31 | 39.12561 | -77.39793 | 13679 ft | 317 kts | 75° |
| 2026-05-08 01:31 | 39.13076 | -77.37058 | 13168 ft | 320 kts | 75° |
| 2026-05-08 01:31 | 39.13603 | -77.34259 | 12656 ft | 323 kts | 75° |
| 2026-05-08 01:31 | 39.14139 | -77.31405 | 12130 ft | 322 kts | 75° |
| 2026-05-08 01:32 | 39.14661 | -77.28625 | 11608 ft | 323 kts | 75° |
| 2026-05-08 01:32 | 39.15183 | -77.25835 | 11094 ft | 322 kts | 75° |
| 2026-05-08 01:32 | 39.15701 | -77.23069 | 10575 ft | 317 kts | 74° |
| 2026-05-08 01:32 | 39.16213 | -77.20332 | 10104 ft | 308 kts | 74° |
| 2026-05-08 01:33 | 39.16696 | -77.17741 | 9962 ft | 287 kts | 74° |
| 2026-05-08 01:33 | 39.17141 | -77.15354 | 9918 ft | 265 kts | 74° |
| 2026-05-08 01:33 | 39.17554 | -77.13142 | 9900 ft | 240 kts | 73° |
| 2026-05-08 01:33 | 39.17922 | -77.11159 | 9886 ft | 213 kts | 72° |
| 2026-05-08 01:34 | 39.18238 | -77.09452 | 9845 ft | 182 kts | 72° |
| 2026-05-08 01:34 | 39.18526 | -77.07921 | 9379 ft | 181 kts | 72° |
| 2026-05-08 01:34 | 39.18835 | -77.06307 | 8747 ft | 185 kts | 72° |
| 2026-05-08 01:34 | 39.19119 | -77.04778 | 8411 ft | 173 kts | 72° |
| 2026-05-08 01:35 | 39.19368 | -77.03246 | 7800 ft | 182 kts | 83° |
| 2026-05-08 01:35 | 39.19339 | -77.01620 | 7500 ft | 174 kts | 92° |
| 2026-05-08 01:35 | 39.19242 | -77.00118 | 7310 ft | 169 kts | 91° |
| 2026-05-08 01:35 | 39.19146 | -76.98578 | 6970 ft | 171 kts | 91° |
| 2026-05-08 01:36 | 39.19049 | -76.97070 | 6760 ft | 166 kts | 91° |
| 2026-05-08 01:36 | 39.18959 | -76.95601 | 6453 ft | 168 kts | 90° |
| 2026-05-08 01:36 | 39.18872 | -76.94111 | 6217 ft | 164 kts | 90° |
| 2026-05-08 01:36 | 39.18790 | -76.92657 | 5943 ft | 163 kts | 90° |
| 2026-05-08 01:37 | 39.18709 | -76.91238 | 5797 ft | 153 kts | 89° |
| 2026-05-08 01:37 | 39.18634 | -76.89853 | 5484 ft | 158 kts | 90° |
| 2026-05-08 01:37 | 39.18549 | -76.88480 | 5230 ft | 150 kts | 92° |
| 2026-05-08 01:37 | 39.18460 | -76.87134 | 4778 ft | 152 kts | 92° |
| 2026-05-08 01:38 | 39.18334 | -76.85831 | 4485 ft | 142 kts | 94° |
| 2026-05-08 01:38 | 39.18227 | -76.84644 | 4243 ft | 128 kts | 91° |
| 2026-05-08 01:38 | 39.18127 | -76.83495 | 3972 ft | 131 kts | 92° |
| 2026-05-08 01:38 | 39.18030 | -76.82353 | 3785 ft | 126 kts | 89° |
| 2026-05-08 01:39 | 39.17954 | -76.81220 | 3546 ft | 127 kts | 91° |
| 2026-05-08 01:39 | 39.17853 | -76.80094 | 3439 ft | 125 kts | 93° |
| 2026-05-08 01:39 | 39.17760 | -76.78946 | 3195 ft | 140 kts | 89° |
| 2026-05-08 01:39 | 39.17753 | -76.77576 | 2702 ft | 172 kts | 86° |
| 2026-05-08 01:40 | 39.17796 | -76.75983 | 2591 ft | 175 kts | 84° |
| 2026-05-08 01:40 | 39.17782 | -76.74501 | 2551 ft | 159 kts | 89° |
| 2026-05-08 01:40 | 39.17767 | -76.73013 | 1767 ft | 181 kts | 90° |
| 2026-05-08 01:40 | 39.17673 | -76.71378 | 1244 ft | 177 kts | 96° |
| 2026-05-08 01:41 | 39.17565 | -76.69913 | 998 ft | 164 kts | 96° |
| 2026-05-08 01:41 | 39.17452 | -76.68401 | 312 ft | 175 kts | 96° |
| 2026-05-08 01:41 | 39.17359 | -76.66933 | 148 ft | 151 kts | 96° |
| 2026-05-08 01:41 | 39.17297 | -76.66035 | 139 ft | 30 kts | 92° |
| 2026-05-08 01:42 | 39.17321 | -76.65926 | 137 ft | 5 kts | 45° |
| 2026-05-08 01:42 | 39.17360 | -76.65898 | 136 ft | 9 kts | 9° |
| 2026-05-08 01:42 | 39.17418 | -76.65907 | 136 ft | 14 kts | 329° |
| 2026-05-08 01:42 | 39.17540 | -76.66032 | 139 ft | 18 kts | 357° |
| 2026-05-08 01:43 | 39.17612 | -76.66042 | 139 ft | 9 kts | 346° |
| 2026-05-08 01:43 | 39.17687 | -76.66088 | 140 ft | 13 kts | 309° |
| 2026-05-08 01:43 | 39.17734 | -76.66202 | 143 ft | 17 kts | 296° |
| 2026-05-08 01:43 | 39.17780 | -76.66312 | 147 ft | 7 kts | 293° |
| 2026-05-08 01:44 | 39.17809 | -76.66378 | 149 ft | 8 kts | 324° |
| 2026-05-08 01:44 | 39.17847 | -76.66406 | 150 ft | 4 kts | 332° |
| 2026-05-08 01:44 | 39.17854 | -76.66411 | 150 ft | 0 kts | 332° |